Time;durP1;ratioP1;P1;durP2;ratioP2;P2;SDS_P1;SDS_P2;PMS_P1;PMS_P2;Temp;Humidity;BMP_temperature;BMP_pressure;BME280_temperature;BME280_humidity;BME280_pressure;Samples;Min_cycle;Max_cycle;Signal;HPM_P1;HPM_P2
2022/07/11 00:00:11;;;;;;;6.65;3.85;;;15.70;99.90;;;;;;5045413;28;20282;-76
2022/07/11 00:02:39;;;;;;;9.15;3.10;;;15.70;99.90;;;;;;5040365;28;20660;-73
2022/07/11 00:05:07;;;;;;;4.95;3.35;;;15.80;99.90;;;;;;5044349;28;20201;-77
2022/07/11 00:07:34;;;;;;;6.70;4.10;;;15.80;99.90;;;;;;5045902;28;20250;-76
2022/07/11 00:10:01;;;;;;;6.50;3.50;;;15.80;99.90;;;;;;5053971;28;20287;-77
2022/07/11 00:12:29;;;;;;;6.57;3.38;;;15.80;99.90;;;;;;5049637;28;20283;-75
2022/07/11 00:14:57;;;;;;;5.20;3.80;;;15.80;99.90;;;;;;5049670;28;20236;-77
2022/07/11 00:17:24;;;;;;;6.90;4.18;;;15.70;99.90;;;;;;5052363;28;20214;-76
2022/07/11 00:19:50;;;;;;;4.18;3.65;;;15.80;99.90;;;;;;5042819;28;20243;-77
2022/07/11 00:22:19;;;;;;;8.10;3.72;;;15.80;99.90;;;;;;5044766;28;20307;-76
2022/07/11 00:24:46;;;;;;;6.43;4.47;;;15.80;99.90;;;;;;5054327;28;20223;-75
2022/07/11 00:27:13;;;;;;;6.03;4.43;;;15.90;99.90;;;;;;5053684;28;20208;-73
2022/07/11 00:29:42;;;;;;;4.07;3.30;;;15.80;99.90;;;;;;5054231;28;20230;-76
2022/07/11 00:32:09;;;;;;;7.43;4.10;;;15.80;99.90;;;;;;5053599;28;20207;-76
2022/07/11 00:34:36;;;;;;;4.00;3.55;;;15.80;99.90;;;;;;5043845;28;20276;-76
2022/07/11 00:37:03;;;;;;;4.70;3.60;;;15.80;99.90;;;;;;5040963;28;20215;-75
2022/07/11 00:39:30;;;;;;;4.38;3.97;;;15.80;99.90;;;;;;5045280;28;20297;-76
2022/07/11 00:41:57;;;;;;;11.43;3.78;;;15.80;99.90;;;;;;5047025;28;20238;-76
2022/07/11 00:44:24;;;;;;;4.90;3.95;;;15.80;99.90;;;;;;5045559;28;20748;-74
2022/07/11 00:46:53;;;;;;;10.30;4.32;;;15.90;99.90;;;;;;5052550;28;20235;-75
2022/07/11 00:49:21;;;;;;;6.65;4.10;;;15.90;99.90;;;;;;5045012;28;20206;-74
2022/07/11 00:51:49;;;;;;;8.00;4.80;;;15.90;99.90;;;;;;5042804;28;20249;-76
2022/07/11 00:54:18;;;;;;;6.20;3.95;;;15.90;99.90;;;;;;5048843;28;20216;-76
2022/07/11 00:56:45;;;;;;;8.32;4.60;;;15.90;99.90;;;;;;5054003;28;20290;-76
2022/07/11 00:59:12;;;;;;;8.77;4.65;;;15.90;99.90;;;;;;5051494;28;20219;-75
2022/07/11 01:01:39;;;;;;;5.20;3.70;;;15.90;99.90;;;;;;5044542;28;20297;-76
2022/07/11 01:04:08;;;;;;;8.05;4.32;;;15.90;99.90;;;;;;5039663;28;20358;-75
2022/07/11 01:06:35;;;;;;;7.03;4.25;;;15.90;99.90;;;;;;5047595;28;20225;-75
2022/07/11 01:09:02;;;;;;;4.55;3.50;;;16.00;99.90;;;;;;5038286;28;20293;-74
2022/07/11 01:11:29;;;;;;;12.02;4.50;;;15.90;99.90;;;;;;5041672;28;20720;-75
2022/07/11 01:13:56;;;;;;;9.60;5.20;;;16.00;99.90;;;;;;5046408;28;20276;-75
2022/07/11 01:16:24;;;;;;;6.35;3.55;;;16.00;99.90;;;;;;5051448;28;20208;-74
2022/07/11 01:18:53;;;;;;;6.53;3.45;;;16.10;99.90;;;;;;5042191;28;20607;-75
2022/07/11 01:21:24;;;;;;;4.05;3.60;;;16.10;99.90;;;;;;5047753;28;20196;-76
2022/07/11 01:23:54;;;;;;;5.13;3.60;;;16.20;99.90;;;;;;5053202;28;20304;-76
2022/07/11 01:26:22;;;;;;;4.03;3.45;;;16.20;99.90;;;;;;5045879;28;20208;-75
2022/07/11 01:28:50;;;;;;;5.78;4.20;;;16.20;99.90;;;;;;5052138;28;20298;-75
2022/07/11 01:31:17;;;;;;;7.10;3.80;;;16.20;99.90;;;;;;5045982;28;20225;-76
2022/07/11 01:33:44;;;;;;;4.60;3.50;;;16.10;99.90;;;;;;5048035;28;20224;-76
2022/07/11 01:36:12;;;;;;;7.35;4.32;;;16.10;99.90;;;;;;5038905;28;20203;-76
2022/07/11 01:38:39;;;;;;;6.80;3.80;;;16.10;99.90;;;;;;5046240;28;20615;-76
2022/07/11 01:41:07;;;;;;;4.47;3.20;;;16.10;99.90;;;;;;5046276;28;20531;-74
2022/07/11 01:43:35;;;;;;;6.10;4.05;;;16.10;99.90;;;;;;5050460;28;20497;-75
2022/07/11 01:46:01;;;;;;;6.45;3.00;;;16.10;99.90;;;;;;5071980;28;20200;-76
2022/07/11 01:48:28;;;;;;;5.60;3.33;;;16.10;99.90;;;;;;5046652;28;20205;-76
2022/07/11 01:50:55;;;;;;;6.80;4.03;;;16.10;99.90;;;;;;5048872;28;20299;-76
2022/07/11 01:53:22;;;;;;;5.82;3.13;;;16.10;99.90;;;;;;5051191;28;20311;-75
2022/07/11 01:55:49;;;;;;;5.78;3.30;;;16.10;99.90;;;;;;5048349;28;20246;-76
2022/07/11 01:58:18;;;;;;;4.65;4.00;;;16.20;99.90;;;;;;5050304;28;20243;-74
2022/07/11 02:00:45;;;;;;;8.07;4.47;;;16.20;99.90;;;;;;5047713;28;20209;-75
2022/07/11 02:03:12;;;;;;;8.20;4.13;;;16.20;99.90;;;;;;5041956;28;20279;-76
2022/07/11 02:05:39;;;;;;;5.43;4.20;;;16.20;99.90;;;;;;5055309;28;20200;-76
2022/07/11 02:08:14;;;;;;;4.68;3.63;;;16.20;99.90;;;;;;5052113;28;20289;-77
2022/07/11 02:10:43;;;;;;;5.25;3.45;;;16.20;99.90;;;;;;5050935;28;20210;-75
2022/07/11 02:13:12;;;;;;;4.47;3.80;;;16.20;99.90;;;;;;5048224;28;20304;-75
2022/07/11 02:15:41;;;;;;;5.07;3.53;;;16.20;99.90;;;;;;5047658;28;20196;-76
2022/07/11 02:18:10;;;;;;;6.07;4.07;;;16.20;99.90;;;;;;5052619;28;20279;-74
2022/07/11 02:20:38;;;;;;;5.00;4.22;;;16.20;99.90;;;;;;5037293;28;20288;-77
2022/07/11 02:23:07;;;;;;;4.40;4.00;;;16.20;99.90;;;;;;5047470;28;20228;-76
2022/07/11 02:25:38;;;;;;;7.35;3.55;;;16.20;99.90;;;;;;5044839;28;20802;-75
2022/07/11 02:28:08;;;;;;;6.03;4.22;;;16.20;99.90;;;;;;5046948;28;20203;-76
2022/07/11 02:30:35;;;;;;;7.73;3.97;;;16.20;99.90;;;;;;5047809;28;20206;-75
2022/07/11 02:33:03;;;;;;;5.28;4.15;;;16.20;99.90;;;;;;5051270;28;20502;-76
2022/07/11 02:35:30;;;;;;;6.05;4.35;;;16.20;99.90;;;;;;5051610;28;20221;-75
2022/07/11 02:37:57;;;;;;;9.98;4.50;;;16.20;99.90;;;;;;5052266;28;20286;-75
2022/07/11 02:40:24;;;;;;;6.32;4.57;;;16.20;99.90;;;;;;5049474;28;20298;-75
2022/07/11 02:42:51;;;;;;;8.25;4.22;;;16.20;99.90;;;;;;5042832;28;20219;-75
2022/07/11 02:45:18;;;;;;;7.05;3.80;;;16.20;99.90;;;;;;5041214;28;20212;-76
2022/07/11 02:47:45;;;;;;;4.20;3.80;;;16.10;99.90;;;;;;5042313;28;20219;-75
2022/07/11 02:50:15;;;;;;;4.55;3.92;;;16.10;99.90;;;;;;5036021;28;20659;-75
2022/07/11 02:52:43;;;;;;;9.98;4.43;;;16.10;99.90;;;;;;5044880;28;20289;-75
2022/07/11 02:55:11;;;;;;;7.85;3.65;;;16.00;99.90;;;;;;5048665;28;20655;-76
2022/07/11 02:57:39;;;;;;;5.50;3.65;;;16.20;99.90;;;;;;5047930;28;20232;-75
2022/07/11 03:00:08;;;;;;;5.18;3.75;;;16.20;99.90;;;;;;5038693;28;20219;-75
2022/07/11 03:02:35;;;;;;;6.85;4.88;;;16.10;99.90;;;;;;5048223;28;20216;-74
2022/07/11 03:05:02;;;;;;;6.75;3.72;;;16.10;99.90;;;;;;5040714;28;20653;-76
2022/07/11 03:07:30;;;;;;;3.75;3.35;;;16.10;99.90;;;;;;5039873;28;20276;-74
2022/07/11 03:09:57;;;;;;;6.88;4.38;;;16.10;99.90;;;;;;5044316;28;20232;-75
2022/07/11 03:12:25;;;;;;;6.32;4.43;;;16.10;99.90;;;;;;5038084;28;20659;-75
2022/07/11 03:14:52;;;;;;;7.07;4.68;;;16.10;99.90;;;;;;5038498;28;20288;-75
2022/07/11 03:17:20;;;;;;;5.43;3.75;;;16.10;99.90;;;;;;5037581;28;20227;-75
2022/07/11 03:19:47;;;;;;;4.45;4.05;;;16.10;99.90;;;;;;5056207;28;20202;-75
2022/07/11 03:22:15;;;;;;;11.30;7.15;;;16.20;99.90;;;;;;5051095;28;20235;-76
2022/07/11 03:24:43;;;;;;;6.88;4.47;;;16.20;99.90;;;;;;5054136;28;20307;-75
2022/07/11 03:27:11;;;;;;;8.05;4.97;;;16.20;99.90;;;;;;5049906;28;20310;-75
2022/07/11 03:29:38;;;;;;;6.00;4.75;;;16.20;99.90;;;;;;5044838;28;20291;-75
2022/07/11 03:32:05;;;;;;;5.80;5.05;;;16.20;99.90;;;;;;5043253;28;20765;-75
2022/07/11 03:34:32;;;;;;;6.30;5.53;;;16.20;99.90;;;;;;5052056;28;20239;-74
2022/07/11 03:37:07;;;;;;;6.45;5.60;;;16.20;99.90;;;;;;5071647;28;20247;-74
2022/07/11 03:39:34;;;;;;;8.38;5.28;;;16.20;99.90;;;;;;5055185;28;20215;-75
2022/07/11 03:42:02;;;;;;;6.47;5.75;;;16.30;99.90;;;;;;5055465;28;20231;-75
2022/07/11 03:44:29;;;;;;;8.57;5.78;;;16.30;99.90;;;;;;5040421;28;20224;-74
2022/07/11 03:46:56;;;;;;;6.75;5.00;;;16.20;99.90;;;;;;5056674;28;20623;-75
2022/07/11 03:49:23;;;;;;;8.10;5.27;;;16.30;99.90;;;;;;5067228;28;20657;-76
2022/07/11 03:51:53;;;;;;;5.63;4.70;;;16.30;99.90;;;;;;5054551;28;20518;-75
2022/07/11 03:54:20;;;;;;;9.27;3.90;;;16.20;99.90;;;;;;5050164;28;20502;-76
2022/07/11 03:56:48;;;;;;;9.23;4.00;;;16.20;99.90;;;;;;5055218;28;20506;-76
2022/07/11 03:59:16;;;;;;;4.80;4.20;;;16.20;99.90;;;;;;5049493;28;20566;-77
2022/07/11 04:01:43;;;;;;;5.40;4.60;;;16.20;99.90;;;;;;5042992;28;20825;-76
2022/07/11 04:04:10;;;;;;;6.27;4.30;;;16.10;99.90;;;;;;5056614;28;20553;-76
2022/07/11 04:06:38;;;;;;;4.72;4.00;;;16.10;99.90;;;;;;5048641;28;20456;-76
2022/07/11 04:09:06;;;;;;;8.55;4.90;;;16.10;99.90;;;;;;5051785;28;20300;-76
2022/07/11 04:11:33;;;;;;;5.67;3.43;;;16.20;99.90;;;;;;5039252;28;20290;-77
2022/07/11 04:14:00;;;;;;;7.83;4.60;;;16.20;99.90;;;;;;5048495;28;20557;-77
2022/07/11 04:16:29;;;;;;;4.70;4.10;;;16.20;99.90;;;;;;5053658;28;20451;-76
2022/07/11 04:18:56;;;;;;;4.23;3.70;;;16.20;99.90;;;;;;5048902;28;20526;-77
2022/07/11 04:21:23;;;;;;;5.43;4.18;;;16.20;99.90;;;;;;5043743;28;20531;-77
2022/07/11 04:23:50;;;;;;;5.70;4.40;;;16.30;99.90;;;;;;5045713;28;20247;-77
2022/07/11 04:26:17;;;;;;;4.50;4.10;;;16.40;99.90;;;;;;5043827;28;20253;-77
2022/07/11 04:28:44;;;;;;;5.07;4.00;;;16.40;99.90;;;;;;5048633;28;20295;-77
2022/07/11 04:31:13;;;;;;;5.10;4.57;;;16.40;99.90;;;;;;5041152;28;20483;-75
2022/07/11 04:33:42;;;;;;;6.20;5.43;;;16.40;99.90;;;;;;5047716;28;20486;-78
2022/07/11 04:36:09;;;;;;;9.73;5.83;;;16.40;99.90;;;;;;5049182;28;20641;-77
2022/07/11 04:38:35;;;;;;;6.70;5.95;;;16.50;99.90;;;;;;5051190;28;20543;-76
2022/07/11 04:41:03;;;;;;;5.63;3.97;;;16.40;99.90;;;;;;5054951;28;20226;-76
2022/07/11 04:43:29;;;;;;;6.45;4.10;;;16.30;99.90;;;;;;5054401;28;20661;-77
2022/07/11 04:45:59;;;;;;;4.95;4.35;;;16.30;99.90;;;;;;5054452;28;20213;-76
2022/07/11 04:48:26;;;;;;;4.97;4.47;;;16.30;99.90;;;;;;5051055;28;20309;-76
2022/07/11 04:50:55;;;;;;;4.78;4.20;;;16.40;99.90;;;;;;5048121;28;20211;-77
2022/07/11 04:53:22;;;;;;;8.45;5.00;;;16.50;99.90;;;;;;5049551;28;20308;-76
2022/07/11 04:55:48;;;;;;;5.65;3.67;;;16.30;99.90;;;;;;5052476;28;20285;-75
2022/07/11 04:58:16;;;;;;;5.15;3.65;;;16.30;99.90;;;;;;5047748;28;20305;-75
2022/07/11 05:00:43;;;;;;;4.82;3.60;;;16.30;99.90;;;;;;5050673;28;20207;-77
2022/07/11 05:03:10;;;;;;;4.53;3.67;;;16.40;99.90;;;;;;5052365;28;20313;-77
2022/07/11 05:05:37;;;;;;;7.32;4.07;;;16.30;99.90;;;;;;5049902;28;20490;-76
2022/07/11 05:08:05;;;;;;;6.28;4.35;;;16.30;99.90;;;;;;5053880;28;20743;-77
2022/07/11 05:10:33;;;;;;;5.25;4.35;;;16.30;99.90;;;;;;5043550;28;20285;-78
2022/07/11 05:13:00;;;;;;;4.47;4.03;;;16.30;99.90;;;;;;5040008;28;20226;-78
2022/07/11 05:15:27;;;;;;;8.43;5.00;;;16.30;99.90;;;;;;5047014;28;20487;-78
2022/07/11 05:17:54;;;;;;;7.13;4.75;;;16.30;99.90;;;;;;5048828;28;20196;-80
2022/07/11 05:20:21;;;;;;;7.75;4.63;;;16.30;99.90;;;;;;5052514;28;20660;-78
2022/07/11 05:22:48;;;;;;;6.50;4.37;;;16.30;99.90;;;;;;5046979;28;20230;-79
2022/07/11 05:25:16;;;;;;;6.60;4.50;;;16.30;99.90;;;;;;5051738;28;20480;-79
2022/07/11 05:28:21;;;;;;;7.43;5.20;;;16.30;99.90;;;;;;5074378;28;20459;-77
2022/07/11 05:30:48;;;;;;;5.38;4.70;;;16.20;99.90;;;;;;5048338;28;20242;-76
2022/07/11 05:33:15;;;;;;;5.20;4.15;;;16.20;99.90;;;;;;5054276;28;20328;-76
2022/07/11 05:35:42;;;;;;;7.68;5.20;;;16.20;99.90;;;;;;5053024;28;20254;-76
2022/07/11 05:38:23;;;;;;;8.32;5.25;;;16.20;99.90;;;;;;5052809;28;20204;-79
2022/07/11 05:40:52;;;;;;;6.30;5.00;;;16.30;99.90;;;;;;5048005;28;20228;-80
2022/07/11 05:44:00;;;;;;;8.32;5.20;;;16.30;99.90;;;;;;5052531;28;20311;-74
2022/07/11 05:46:27;;;;;;;6.10;5.32;;;16.30;99.90;;;;;;5051920;28;20218;-75
2022/07/11 05:48:54;;;;;;;6.43;5.83;;;16.40;99.90;;;;;;5047396;28;20625;-74
2022/07/11 05:51:21;;;;;;;7.03;6.33;;;16.40;99.90;;;;;;5050377;28;20472;-72
2022/07/11 05:53:50;;;;;;;9.03;6.87;;;16.50;99.90;;;;;;5044905;28;20476;-73
2022/07/11 05:56:25;;;;;;;5.25;4.75;;;16.60;99.90;;;;;;5045991;28;20531;-72
2022/07/11 05:58:53;;;;;;;5.30;4.80;;;16.70;99.90;;;;;;5043939;28;20223;-73
2022/07/11 06:01:22;;;;;;;8.07;4.97;;;16.80;99.90;;;;;;5042567;28;20453;-74
2022/07/11 06:03:49;;;;;;;7.63;4.73;;;16.80;99.90;;;;;;5041386;28;20842;-73
2022/07/11 06:06:17;;;;;;;6.43;5.83;;;16.90;99.90;;;;;;5038059;28;20591;-74
2022/07/11 06:08:43;;;;;;;7.20;5.70;;;16.90;99.90;;;;;;5050179;28;20822;-75
2022/07/11 06:11:12;;;;;;;6.33;5.30;;;16.90;99.90;;;;;;5046891;28;20458;-73
2022/07/11 06:13:41;;;;;;;8.37;5.67;;;17.00;99.90;;;;;;5043528;28;20537;-74
2022/07/11 06:16:09;;;;;;;6.13;5.53;;;17.00;99.90;;;;;;5051722;28;20573;-74
2022/07/11 06:18:37;;;;;;;7.67;6.00;;;17.00;99.90;;;;;;5039741;28;20450;-74
2022/07/11 06:21:04;;;;;;;6.53;5.87;;;17.00;99.90;;;;;;5045928;28;20490;-74
2022/07/11 06:23:31;;;;;;;6.30;4.90;;;17.00;99.90;;;;;;5038790;28;20474;-73
2022/07/11 06:25:59;;;;;;;8.43;5.73;;;17.10;99.90;;;;;;5047032;28;20503;-72
2022/07/11 06:28:26;;;;;;;6.53;5.93;;;17.10;99.90;;;;;;5043026;28;20849;-73
2022/07/11 06:30:54;;;;;;;8.20;6.53;;;17.00;99.90;;;;;;5042237;28;20476;-73
2022/07/11 06:33:21;;;;;;;5.40;5.00;;;17.00;99.90;;;;;;5042133;28;20463;-75
2022/07/11 06:35:49;;;;;;;6.80;4.70;;;17.00;99.90;;;;;;5039353;28;20455;-74
2022/07/11 06:38:17;;;;;;;5.00;4.27;;;17.10;99.90;;;;;;5043981;28;20953;-74
2022/07/11 06:40:45;;;;;;;6.47;5.97;;;17.30;99.90;;;;;;5035922;28;20441;-74
2022/07/11 06:43:12;;;;;;;9.10;5.13;;;17.50;99.90;;;;;;5043752;28;20473;-74
2022/07/11 06:45:40;;;;;;;5.50;5.00;;;17.60;99.90;;;;;;5042018;28;20581;-74
2022/07/11 06:48:08;;;;;;;4.67;4.27;;;17.70;99.90;;;;;;5042270;28;20468;-76
2022/07/11 06:50:36;;;;;;;5.53;4.37;;;17.90;99.90;;;;;;5038501;28;20455;-75
2022/07/11 06:53:04;;;;;;;4.63;4.07;;;18.00;99.90;;;;;;5037342;28;21005;-75
2022/07/11 06:55:32;;;;;;;7.50;4.20;;;18.10;99.90;;;;;;5043227;28;20447;-76
2022/07/11 06:57:59;;;;;;;5.37;3.57;;;18.10;99.90;;;;;;5046035;28;20542;-75
2022/07/11 07:00:27;;;;;;;4.30;3.20;;;18.20;99.90;;;;;;5033524;28;20529;-75
2022/07/11 07:02:56;;;;;;;3.63;2.60;;;18.30;99.90;;;;;;5038804;28;20557;-75
2022/07/11 07:05:25;;;;;;;4.33;2.57;;;18.20;99.90;;;;;;5034527;28;20489;-74
2022/07/11 07:07:52;;;;;;;2.73;2.50;;;18.20;99.90;;;;;;5036768;28;20447;-75
2022/07/11 07:10:19;;;;;;;3.93;2.07;;;18.40;99.90;;;;;;5044231;28;20439;-75
2022/07/11 07:12:46;;;;;;;3.87;1.77;;;18.50;99.90;;;;;;5056666;28;20533;-74
2022/07/11 07:15:13;;;;;;;2.37;1.60;;;18.70;99.90;;;;;;5049972;28;20470;-74
2022/07/11 07:17:41;;;;;;;2.30;1.60;;;18.70;99.90;;;;;;5063219;28;20442;-73
2022/07/11 07:20:11;;;;;;;4.50;1.47;;;18.90;99.90;;;;;;5079747;28;20887;-74
2022/07/11 07:22:40;;;;;;;2.40;1.50;;;19.00;99.90;;;;;;5048998;28;20470;-74
2022/07/11 07:25:10;;;;;;;2.43;1.50;;;19.10;99.90;;;;;;5039316;28;20537;-74
2022/07/11 07:27:37;;;;;;;2.53;1.90;;;19.20;99.90;;;;;;5052163;28;20453;-74
2022/07/11 07:30:04;;;;;;;1.80;1.70;;;19.30;99.90;;;;;;5053303;28;20546;-74
2022/07/11 07:32:32;;;;;;;3.30;2.07;;;19.40;99.90;;;;;;5040515;28;20464;-75
2022/07/11 07:35:00;;;;;;;3.00;1.63;;;19.50;99.90;;;;;;5040495;28;20483;-74
2022/07/11 07:37:27;;;;;;;1.10;0.97;;;19.70;99.90;;;;;;5042829;28;20534;-74
2022/07/11 07:39:55;;;;;;;3.07;1.40;;;19.90;99.90;;;;;;5042251;28;20447;-76
2022/07/11 07:42:22;;;;;;;1.70;1.60;;;20.00;99.90;;;;;;5049942;28;20808;-75
2022/07/11 07:44:49;;;;;;;4.10;1.43;;;19.90;99.90;;;;;;5046605;28;20896;-74
2022/07/11 07:47:16;;;;;;;6.07;1.80;;;19.90;99.90;;;;;;5048460;28;20544;-74
2022/07/11 07:49:43;;;;;;;1.80;1.53;;;19.80;99.90;;;;;;5046395;28;20872;-74
2022/07/11 07:52:10;;;;;;;2.03;1.70;;;19.70;99.90;;;;;;5043824;28;20559;-74
2022/07/11 07:54:37;;;;;;;2.17;1.80;;;19.60;99.90;;;;;;5043128;28;20869;-74
2022/07/11 07:57:06;;;;;;;2.33;1.43;;;19.60;99.90;;;;;;5048742;28;21035;-76
2022/07/11 07:59:33;;;;;;;1.73;1.63;;;19.60;99.90;;;;;;5042069;28;20892;-74
2022/07/11 08:01:59;;;;;;;3.17;2.30;;;19.50;99.90;;;;;;5046743;28;20537;-75
2022/07/11 08:04:26;;;;;;;3.53;3.17;;;19.30;99.90;;;;;;5037276;28;20553;-75
2022/07/11 08:06:54;;;;;;;6.90;2.70;;;19.30;99.90;;;;;;5057751;28;20476;-73
2022/07/11 08:09:21;;;;;;;3.17;2.07;;;19.30;99.90;;;;;;5054399;28;20455;-74
2022/07/11 08:11:48;;;;;;;3.80;2.47;;;19.30;99.90;;;;;;5050811;28;20500;-74
2022/07/11 08:14:17;;;;;;;2.63;2.20;;;19.30;99.90;;;;;;5048010;28;20470;-74
2022/07/11 08:16:44;;;;;;;2.70;2.40;;;19.30;99.90;;;;;;5042067;28;20438;-73
2022/07/11 08:19:11;;;;;;;2.53;1.63;;;19.20;99.90;;;;;;5051461;28;20466;-73
2022/07/11 08:21:38;;;;;;;2.40;2.13;;;19.00;99.90;;;;;;5050531;28;20963;-74
2022/07/11 08:24:06;;;;;;;2.63;1.53;;;19.00;99.90;;;;;;5058579;28;20536;-75
2022/07/11 08:26:33;;;;;;;1.87;1.40;;;19.10;99.90;;;;;;5047353;28;20502;-74
2022/07/11 08:29:01;;;;;;;2.60;1.10;;;19.50;99.90;;;;;;5041299;28;20450;-75
2022/07/11 08:31:29;;;;;;;1.60;1.03;;;20.00;99.90;;;;;;5050296;28;20460;-75
2022/07/11 08:33:58;;;;;;;1.40;0.90;;;20.40;99.90;;;;;;5046531;28;20463;-75
2022/07/11 08:36:27;;;;;;;1.23;0.80;;;20.80;99.90;;;;;;5041302;28;20532;-74
2022/07/11 08:38:54;;;;;;;3.50;0.80;;;21.20;99.90;;;;;;5051376;28;20465;-75
2022/07/11 08:41:21;;;;;;;2.70;1.03;;;21.40;99.90;;;;;;5043190;28;20500;-75
2022/07/11 08:43:49;;;;;;;1.80;0.80;;;21.50;99.90;;;;;;5038183;28;20470;-73
2022/07/11 08:46:16;;;;;;;1.60;1.00;;;21.50;99.90;;;;;;5044241;28;21004;-75
2022/07/11 08:48:47;;;;;;;1.40;0.93;;;21.30;99.90;;;;;;5055336;28;20833;-75
2022/07/11 08:51:13;;;;;;;1.27;0.70;;;21.10;99.90;;;;;;5040486;28;20517;-73
2022/07/11 08:53:44;;;;;;;2.07;1.40;;;20.70;99.90;;;;;;5048735;28;20476;-74
2022/07/11 08:56:15;;;;;;;1.87;1.50;;;20.40;99.90;;;;;;5042517;28;20451;-74
2022/07/11 08:58:45;;;;;;;4.60;1.50;;;20.30;99.90;;;;;;5042138;28;20470;-75
2022/07/11 09:01:15;;;;;;;1.63;1.30;;;20.50;99.90;;;;;;5043108;28;20449;-75
2022/07/11 09:03:45;;;;;;;1.63;1.10;;;20.80;99.90;;;;;;5050605;28;20495;-74
2022/07/11 09:06:13;;;;;;;2.00;1.00;;;21.20;99.90;;;;;;5040442;28;20484;-77
2022/07/11 09:08:40;;;;;;;1.87;1.10;;;21.30;99.90;;;;;;5042894;28;20457;-75
2022/07/11 09:11:07;;;;;;;3.10;1.70;;;21.40;99.90;;;;;;5045175;28;20722;-76
2022/07/11 09:13:34;;;;;;;1.40;1.20;;;21.40;99.90;;;;;;5053814;28;20483;-74
2022/07/11 09:16:06;;;;;;;3.20;1.37;;;21.10;99.90;;;;;;5051745;28;20482;-75
2022/07/11 09:18:35;;;;;;;3.43;2.80;;;20.80;99.90;;;;;;5039749;28;20442;-74
2022/07/11 09:26:37;;;;;;;3.73;2.50;;;20.90;99.90;;;;;;5049092;28;20484;-75
2022/07/11 09:29:07;;;;;;;3.20;2.43;;;21.00;99.90;;;;;;5044341;28;21014;-75
2022/07/11 09:31:34;;;;;;;7.93;2.83;;;21.00;99.90;;;;;;5051156;28;20465;-76
2022/07/11 09:34:05;;;;;;;3.53;2.13;;;21.00;99.90;;;;;;5060030;28;21222;-74
2022/07/11 09:36:54;;;;;;;3.00;1.60;;;20.90;99.90;;;;;;5043751;28;20746;-74
2022/07/11 09:39:22;;;;;;;2.20;1.67;;;20.80;99.90;;;;;;5042657;28;20463;-75
2022/07/11 09:41:51;;;;;;;4.17;1.90;;;20.80;99.90;;;;;;5043682;28;20920;-76
2022/07/11 09:44:20;;;;;;;2.30;1.53;;;20.60;99.90;;;;;;5043618;28;20475;-76
2022/07/11 09:46:49;;;;;;;2.40;0.87;;;20.60;99.90;;;;;;5040016;28;20508;-74
2022/07/11 09:49:17;;;;;;;1.67;1.00;;;21.10;99.90;;;;;;5046733;28;20481;-75
2022/07/11 09:51:45;;;;;;;5.77;0.67;;;21.30;99.90;;;;;;5053829;28;20484;-75
2022/07/11 09:54:13;;;;;;;2.93;1.30;;;21.60;99.90;;;;;;5048441;28;21008;-74
2022/07/11 09:56:43;;;;;;;1.30;1.00;;;21.90;99.90;;;;;;5051468;28;20810;-74
2022/07/11 09:59:11;;;;;;;35.03;23.60;;;22.00;99.90;;;;;;5044213;28;20562;-75
2022/07/11 10:01:39;;;;;;;2.23;0.97;;;22.00;99.90;;;;;;5048497;28;20545;-74
2022/07/11 10:04:07;;;;;;;1.10;0.80;;;21.90;99.90;;;;;;5038244;28;20478;-76
2022/07/11 10:06:35;;;;;;;1.30;1.10;;;21.90;99.90;;;;;;5038541;28;20503;-73
2022/07/11 10:09:05;;;;;;;2.10;1.23;;;21.80;99.90;;;;;;5045842;28;20446;-75
2022/07/11 10:11:34;;;;;;;2.57;1.30;;;21.70;99.90;;;;;;5035627;28;20921;-74
2022/07/11 10:14:02;;;;;;;4.00;1.20;;;21.80;99.90;;;;;;5043683;28;20963;-75
2022/07/11 10:16:42;;;;;;;5.20;1.20;;;21.90;99.90;;;;;;5045205;28;20450;-75
2022/07/11 10:19:26;;;;;;;3.30;1.30;;;22.20;99.90;;;;;;5044489;28;20601;-75
2022/07/11 10:22:06;;;;;;;1.00;0.70;;;22.60;99.90;;;;;;5045268;28;20605;-75
2022/07/11 10:24:41;;;;;;;2.20;0.87;;;22.90;99.90;;;;;;5039513;28;20478;-75
2022/07/11 10:27:22;;;;;;;1.00;0.70;;;22.90;99.90;;;;;;5038950;28;20593;-74
2022/07/11 10:29:52;;;;;;;2.67;1.03;;;23.10;99.90;;;;;;5036711;28;20480;-76
2022/07/11 10:32:20;;;;;;;2.17;0.70;;;23.20;99.90;;;;;;5039902;28;20450;-75
2022/07/11 10:35:06;;;;;;;8.40;0.83;;;23.20;99.90;;;;;;5044303;28;20992;-76
2022/07/11 10:37:50;;;;;;;0.87;0.67;;;23.20;99.90;;;;;;5037280;28;20451;-76
2022/07/11 10:40:37;;;;;;;2.37;1.23;;;23.30;99.90;;;;;;5041394;28;20994;-75
2022/07/11 10:43:05;;;;;;;1.53;0.93;;;23.40;99.90;;;;;;5052857;28;20527;-75
2022/07/11 10:45:50;;;;;;;4.03;0.93;;;23.00;99.90;;;;;;5045100;28;20459;-75
2022/07/11 10:48:17;;;;;;;1.63;0.80;;;22.80;99.90;;;;;;5049609;28;20496;-74
2022/07/11 10:50:44;;;;;;;4.40;0.70;;;22.60;99.90;;;;;;5051193;28;20449;-73
2022/07/11 10:53:20;;;;;;;1.33;0.80;;;22.20;99.90;;;;;;5056274;28;20568;-73
2022/07/11 10:56:01;;;;;;;1.93;1.00;;;21.90;99.90;;;;;;5047771;28;20515;-73
2022/07/11 10:58:31;;;;;;;2.80;0.70;;;21.90;99.90;;;;;;5047072;28;20507;-74
2022/07/11 11:01:11;;;;;;;2.60;1.50;;;22.10;99.90;;;;;;5052377;28;20472;-73
2022/07/11 11:03:39;;;;;;;1.43;0.80;;;22.50;99.90;;;;;;5051710;28;20472;-74
2022/07/11 11:06:06;;;;;;;2.60;0.70;;;22.60;99.90;;;;;;5059444;28;20480;-74
2022/07/11 11:08:47;;;;;;;2.03;1.10;;;22.50;99.90;;;;;;5070705;28;20473;-74
2022/07/11 11:11:47;;;;;;;2.87;1.23;;;22.30;99.90;;;;;;5055983;28;20471;-73
2022/07/11 11:14:20;;;;;;;1.30;0.90;;;22.00;99.90;;;;;;5037700;28;20868;-74
2022/07/11 11:16:47;;;;;;;5.47;1.40;;;21.70;99.90;;;;;;5052469;28;20448;-74
2022/07/11 11:19:55;;;;;;;2.00;1.17;;;21.70;99.90;;;;;;5052916;28;20495;-74
2022/07/11 11:22:24;;;;;;;2.40;0.70;;;21.60;99.90;;;;;;5050953;28;20449;-74
2022/07/11 11:24:53;;;;;;;3.43;0.97;;;21.70;99.90;;;;;;5046861;28;20803;-74
2022/07/11 11:27:21;;;;;;;2.00;1.23;;;21.70;99.90;;;;;;5048347;28;20483;-75
2022/07/11 11:29:51;;;;;;;1.43;0.87;;;21.70;99.90;;;;;;5051991;28;20492;-75
2022/07/11 11:32:36;;;;;;;2.50;0.90;;;22.00;99.90;;;;;;5042324;28;20453;-75
2022/07/11 11:35:05;;;;;;;2.30;0.83;;;22.50;99.90;;;;;;5043028;28;20447;-74
2022/07/11 11:37:34;;;;;;;1.10;0.87;;;23.00;99.90;;;;;;5046953;28;20446;-75
2022/07/11 11:40:00;;;;;;;1.47;0.73;;;23.30;99.90;;;;;;5049780;28;20948;-75
2022/07/11 11:42:29;;;;;;;3.43;0.93;;;23.50;99.90;;;;;;5045507;28;20877;-75
2022/07/11 11:45:00;;;;;;;2.00;0.83;;;23.80;99.90;;;;;;5048432;28;20856;-75
2022/07/11 11:47:31;;;;;;;2.20;0.97;;;23.80;99.90;;;;;;5046286;28;20471;-75
2022/07/11 11:49:58;;;;;;;2.60;1.03;;;23.80;99.90;;;;;;5046921;28;20524;-75
2022/07/11 11:52:28;;;;;;;3.00;2.07;;;23.70;99.90;;;;;;5043475;28;20454;-76
2022/07/11 11:54:57;;;;;;;1.30;0.90;;;23.50;99.90;;;;;;5052174;28;20526;-74
2022/07/11 11:57:26;;;;;;;2.37;1.53;;;23.20;99.90;;;;;;5053597;28;20520;-74
2022/07/11 11:59:53;;;;;;;1.97;1.07;;;22.80;99.90;;;;;;5043485;28;20473;-75
2022/07/11 12:02:26;;;;;;;2.37;2.00;;;22.50;99.90;;;;;;5045011;28;20466;-74
2022/07/11 12:04:54;;;;;;;1.93;1.00;;;22.30;99.90;;;;;;5052062;28;20473;-75
2022/07/11 12:07:30;;;;;;;2.10;1.40;;;22.10;99.90;;;;;;5052155;28;20561;-76
2022/07/11 12:10:03;;;;;;;3.60;1.13;;;22.20;99.90;;;;;;5043922;28;20493;-76
2022/07/11 12:12:47;;;;;;;4.17;1.50;;;22.20;99.90;;;;;;5054673;28;20487;-76
2022/07/11 12:15:31;;;;;;;0.97;0.80;;;22.20;99.90;;;;;;5046836;28;20859;-76
2022/07/11 12:18:02;;;;;;;2.80;1.13;;;22.20;99.90;;;;;;5050071;28;20456;-72
2022/07/11 12:20:40;;;;;;;1.10;0.70;;;22.20;99.90;;;;;;5048382;28;20999;-74
2022/07/11 12:23:09;;;;;;;6.63;4.70;;;22.20;99.90;;;;;;5043861;28;20473;-75
2022/07/11 12:25:38;;;;;;;1.37;1.20;;;22.40;99.90;;;;;;5050525;28;20490;-74
2022/07/11 12:28:07;;;;;;;1.60;0.80;;;22.50;99.90;;;;;;5042976;28;20489;-75
2022/07/11 12:30:35;;;;;;;1.50;0.90;;;22.40;99.90;;;;;;5040003;28;20819;-75
2022/07/11 12:33:11;;;;;;;1.63;0.93;;;22.30;99.90;;;;;;5045834;28;20500;-75
2022/07/11 12:35:54;;;;;;;1.77;0.80;;;22.20;99.90;;;;;;5050091;28;20458;-73
2022/07/11 12:38:22;;;;;;;1.50;0.80;;;22.10;99.90;;;;;;5041142;28;20539;-75
2022/07/11 12:41:05;;;;;;;2.07;1.23;;;22.00;99.90;;;;;;5047239;28;20457;-77
2022/07/11 12:46:29;;;;;;;1.60;0.83;;;21.80;99.90;;;;;;5051115;28;20465;-76
2022/07/11 12:48:59;;;;;;;2.00;1.10;;;21.70;99.90;;;;;;5043931;28;20520;-76
2022/07/11 12:51:30;;;;;;;1.07;0.83;;;21.70;99.90;;;;;;5039632;28;20449;-76
2022/07/11 12:54:05;;;;;;;1.70;0.90;;;21.70;99.90;;;;;;5041164;28;20481;-75
2022/07/11 12:56:32;;;;;;;1.60;0.87;;;21.80;99.90;;;;;;5046504;28;20457;-73
2022/07/11 12:58:59;;;;;;;1.10;0.83;;;22.10;99.90;;;;;;5037578;28;20862;-75
2022/07/11 13:01:26;;;;;;;1.37;0.93;;;22.40;99.90;;;;;;5049477;28;20533;-76
2022/07/11 13:03:53;;;;;;;1.50;1.07;;;22.80;99.90;;;;;;5062310;28;20507;-75